sensor_id;sensor_type;location;lat;lon;timestamp;temperature;humidity
42979;DHT22;28616;44.746;19.678;2023-05-13T00:00:12;11.40;99.90
42979;DHT22;28616;44.746;19.678;2023-05-13T00:02:38;11.50;99.90
42979;DHT22;28616;44.746;19.678;2023-05-13T00:05:04;11.50;99.90
42979;DHT22;28616;44.746;19.678;2023-05-13T00:07:30;11.40;99.90
42979;DHT22;28616;44.746;19.678;2023-05-13T00:09:56;11.50;99.90
42979;DHT22;28616;44.746;19.678;2023-05-13T00:12:22;11.50;99.90
42979;DHT22;28616;44.746;19.678;2023-05-13T00:14:47;11.50;99.90
42979;DHT22;28616;44.746;19.678;2023-05-13T00:17:13;11.40;99.90
42979;DHT22;28616;44.746;19.678;2023-05-13T00:19:39;11.50;99.90
42979;DHT22;28616;44.746;19.678;2023-05-13T00:22:05;11.40;99.90
42979;DHT22;28616;44.746;19.678;2023-05-13T00:24:31;11.50;99.90
42979;DHT22;28616;44.746;19.678;2023-05-13T00:26:57;11.60;99.90
42979;DHT22;28616;44.746;19.678;2023-05-13T00:29:22;11.50;99.90
42979;DHT22;28616;44.746;19.678;2023-05-13T00:31:48;11.50;99.90
42979;DHT22;28616;44.746;19.678;2023-05-13T00:34:14;11.50;99.90
42979;DHT22;28616;44.746;19.678;2023-05-13T00:36:41;11.50;99.90
42979;DHT22;28616;44.746;19.678;2023-05-13T00:39:07;11.50;99.90
42979;DHT22;28616;44.746;19.678;2023-05-13T00:41:32;11.40;99.90
42979;DHT22;28616;44.746;19.678;2023-05-13T00:43:58;11.40;99.90
42979;DHT22;28616;44.746;19.678;2023-05-13T00:46:24;11.40;99.90
42979;DHT22;28616;44.746;19.678;2023-05-13T00:48:50;11.50;99.90
42979;DHT22;28616;44.746;19.678;2023-05-13T00:51:16;11.50;99.90
42979;DHT22;28616;44.746;19.678;2023-05-13T00:53:42;11.50;99.90
42979;DHT22;28616;44.746;19.678;2023-05-13T00:56:08;11.50;99.90
42979;DHT22;28616;44.746;19.678;2023-05-13T00:58:34;11.40;99.90
42979;DHT22;28616;44.746;19.678;2023-05-13T01:01:12;11.40;99.90
42979;DHT22;28616;44.746;19.678;2023-05-13T01:04:08;11.50;99.90
42979;DHT22;28616;44.746;19.678;2023-05-13T01:09:29;11.30;99.90
42979;DHT22;28616;44.746;19.678;2023-05-13T01:12:07;11.30;99.90
42979;DHT22;28616;44.746;19.678;2023-05-13T01:14:36;11.30;99.90
42979;DHT22;28616;44.746;19.678;2023-05-13T01:17:12;11.20;99.90
42979;DHT22;28616;44.746;19.678;2023-05-13T01:19:43;11.30;99.90
42979;DHT22;28616;44.746;19.678;2023-05-13T01:22:09;11.20;99.90
42979;DHT22;28616;44.746;19.678;2023-05-13T01:24:34;11.20;99.90
42979;DHT22;28616;44.746;19.678;2023-05-13T01:27:00;11.30;99.90
42979;DHT22;28616;44.746;19.678;2023-05-13T01:29:27;11.40;99.90
42979;DHT22;28616;44.746;19.678;2023-05-13T01:31:54;11.30;99.90
42979;DHT22;28616;44.746;19.678;2023-05-13T01:34:21;11.30;99.90
42979;DHT22;28616;44.746;19.678;2023-05-13T01:36:48;11.20;99.90
42979;DHT22;28616;44.746;19.678;2023-05-13T01:39:15;11.20;99.90
42979;DHT22;28616;44.746;19.678;2023-05-13T01:41:42;11.20;99.90
42979;DHT22;28616;44.746;19.678;2023-05-13T01:44:09;11.20;99.90
42979;DHT22;28616;44.746;19.678;2023-05-13T01:46:38;11.20;99.90
42979;DHT22;28616;44.746;19.678;2023-05-13T01:49:03;11.20;99.90
42979;DHT22;28616;44.746;19.678;2023-05-13T01:51:30;11.10;99.90
42979;DHT22;28616;44.746;19.678;2023-05-13T01:53:56;11.20;99.90
42979;DHT22;28616;44.746;19.678;2023-05-13T01:56:22;11.20;99.90
42979;DHT22;28616;44.746;19.678;2023-05-13T01:58:48;11.30;99.90
42979;DHT22;28616;44.746;19.678;2023-05-13T02:01:14;11.40;99.90
42979;DHT22;28616;44.746;19.678;2023-05-13T02:03:39;11.40;99.90
42979;DHT22;28616;44.746;19.678;2023-05-13T02:06:05;11.40;99.90
42979;DHT22;28616;44.746;19.678;2023-05-13T02:08:31;11.40;99.90
42979;DHT22;28616;44.746;19.678;2023-05-13T02:10:57;11.40;99.90
42979;DHT22;28616;44.746;19.678;2023-05-13T02:13:24;11.40;99.90
42979;DHT22;28616;44.746;19.678;2023-05-13T02:15:51;11.40;99.90
42979;DHT22;28616;44.746;19.678;2023-05-13T02:18:17;11.40;99.90
42979;DHT22;28616;44.746;19.678;2023-05-13T02:20:43;11.40;99.90
42979;DHT22;28616;44.746;19.678;2023-05-13T02:23:09;11.40;99.90
42979;DHT22;28616;44.746;19.678;2023-05-13T02:25:35;11.30;99.90
42979;DHT22;28616;44.746;19.678;2023-05-13T02:28:01;11.40;99.90
42979;DHT22;28616;44.746;19.678;2023-05-13T02:30:27;11.40;99.90
42979;DHT22;28616;44.746;19.678;2023-05-13T02:32:53;11.30;99.90
42979;DHT22;28616;44.746;19.678;2023-05-13T02:35:21;11.30;99.90
42979;DHT22;28616;44.746;19.678;2023-05-13T02:37:47;11.20;99.90
42979;DHT22;28616;44.746;19.678;2023-05-13T02:40:13;11.10;99.90
42979;DHT22;28616;44.746;19.678;2023-05-13T02:42:39;11.10;99.90
42979;DHT22;28616;44.746;19.678;2023-05-13T02:45:05;11.10;99.90
42979;DHT22;28616;44.746;19.678;2023-05-13T02:47:31;11.20;99.90
42979;DHT22;28616;44.746;19.678;2023-05-13T02:49:57;11.20;99.90
42979;DHT22;28616;44.746;19.678;2023-05-13T02:52:23;11.20;99.90
42979;DHT22;28616;44.746;19.678;2023-05-13T02:54:48;11.10;99.90
42979;DHT22;28616;44.746;19.678;2023-05-13T02:57:14;11.10;99.90
42979;DHT22;28616;44.746;19.678;2023-05-13T02:59:40;11.10;99.90
42979;DHT22;28616;44.746;19.678;2023-05-13T03:02:06;11.10;99.90
42979;DHT22;28616;44.746;19.678;2023-05-13T03:04:32;11.10;99.90
42979;DHT22;28616;44.746;19.678;2023-05-13T03:06:58;11.00;99.90
42979;DHT22;28616;44.746;19.678;2023-05-13T03:09:24;11.00;99.90
42979;DHT22;28616;44.746;19.678;2023-05-13T03:11:49;11.00;99.90
42979;DHT22;28616;44.746;19.678;2023-05-13T03:14:15;11.00;99.90
42979;DHT22;28616;44.746;19.678;2023-05-13T03:16:41;10.90;99.90
42979;DHT22;28616;44.746;19.678;2023-05-13T03:19:07;10.80;99.90
42979;DHT22;28616;44.746;19.678;2023-05-13T03:21:33;10.70;99.90
42979;DHT22;28616;44.746;19.678;2023-05-13T03:23:58;10.80;99.90
42979;DHT22;28616;44.746;19.678;2023-05-13T03:26:24;10.80;99.90
42979;DHT22;28616;44.746;19.678;2023-05-13T03:28:51;10.70;99.90
42979;DHT22;28616;44.746;19.678;2023-05-13T03:31:16;10.70;99.90
42979;DHT22;28616;44.746;19.678;2023-05-13T03:33:42;10.70;99.90
42979;DHT22;28616;44.746;19.678;2023-05-13T03:36:08;10.70;99.90
42979;DHT22;28616;44.746;19.678;2023-05-13T03:38:34;10.70;99.90
42979;DHT22;28616;44.746;19.678;2023-05-13T03:41:00;10.70;99.90
42979;DHT22;28616;44.746;19.678;2023-05-13T03:43:25;10.60;99.90
42979;DHT22;28616;44.746;19.678;2023-05-13T03:45:51;10.70;99.90
42979;DHT22;28616;44.746;19.678;2023-05-13T03:48:17;10.60;99.90
42979;DHT22;28616;44.746;19.678;2023-05-13T03:50:43;10.60;99.90
42979;DHT22;28616;44.746;19.678;2023-05-13T03:53:09;10.60;99.90
42979;DHT22;28616;44.746;19.678;2023-05-13T03:55:35;10.60;99.90
42979;DHT22;28616;44.746;19.678;2023-05-13T03:58:13;10.70;99.90
42979;DHT22;28616;44.746;19.678;2023-05-13T04:00:40;10.70;99.90
42979;DHT22;28616;44.746;19.678;2023-05-13T04:03:06;10.60;99.90
42979;DHT22;28616;44.746;19.678;2023-05-13T04:05:32;10.60;99.90
42979;DHT22;28616;44.746;19.678;2023-05-13T04:07:58;10.60;99.90
42979;DHT22;28616;44.746;19.678;2023-05-13T04:10:24;10.70;99.90
42979;DHT22;28616;44.746;19.678;2023-05-13T04:12:49;10.60;99.90
42979;DHT22;28616;44.746;19.678;2023-05-13T04:15:15;10.80;99.90
42979;DHT22;28616;44.746;19.678;2023-05-13T04:17:41;10.70;99.90
42979;DHT22;28616;44.746;19.678;2023-05-13T04:20:07;10.70;99.90
42979;DHT22;28616;44.746;19.678;2023-05-13T04:22:34;10.80;99.90
42979;DHT22;28616;44.746;19.678;2023-05-13T04:25:00;10.90;99.90
42979;DHT22;28616;44.746;19.678;2023-05-13T04:27:25;10.90;99.90
42979;DHT22;28616;44.746;19.678;2023-05-13T04:29:51;11.00;99.90
42979;DHT22;28616;44.746;19.678;2023-05-13T04:32:17;11.00;99.90
42979;DHT22;28616;44.746;19.678;2023-05-13T04:34:51;11.10;99.90
42979;DHT22;28616;44.746;19.678;2023-05-13T04:37:17;11.10;99.90
42979;DHT22;28616;44.746;19.678;2023-05-13T04:39:47;11.20;99.90
42979;DHT22;28616;44.746;19.678;2023-05-13T04:42:15;11.20;99.90
42979;DHT22;28616;44.746;19.678;2023-05-13T04:44:42;11.30;99.90
42979;DHT22;28616;44.746;19.678;2023-05-13T04:47:07;11.30;99.90
42979;DHT22;28616;44.746;19.678;2023-05-13T04:49:33;11.40;99.90
42979;DHT22;28616;44.746;19.678;2023-05-13T04:52:03;11.40;99.90
42979;DHT22;28616;44.746;19.678;2023-05-13T04:54:29;11.50;99.90
42979;DHT22;28616;44.746;19.678;2023-05-13T04:56:55;11.60;99.90
42979;DHT22;28616;44.746;19.678;2023-05-13T04:59:21;11.60;99.90
42979;DHT22;28616;44.746;19.678;2023-05-13T05:01:47;11.70;99.90
42979;DHT22;28616;44.746;19.678;2023-05-13T05:04:13;11.80;99.90
42979;DHT22;28616;44.746;19.678;2023-05-13T05:06:39;11.80;99.90
42979;DHT22;28616;44.746;19.678;2023-05-13T05:09:05;11.90;99.90
42979;DHT22;28616;44.746;19.678;2023-05-13T05:11:31;12.00;99.90
42979;DHT22;28616;44.746;19.678;2023-05-13T05:13:57;12.10;99.90
42979;DHT22;28616;44.746;19.678;2023-05-13T05:16:22;12.20;99.90
42979;DHT22;28616;44.746;19.678;2023-05-13T05:18:48;12.30;99.90
42979;DHT22;28616;44.746;19.678;2023-05-13T05:21:14;12.30;99.90
42979;DHT22;28616;44.746;19.678;2023-05-13T05:23:42;12.30;99.90
42979;DHT22;28616;44.746;19.678;2023-05-13T05:26:08;12.40;99.90
42979;DHT22;28616;44.746;19.678;2023-05-13T05:28:50;12.50;99.90
42979;DHT22;28616;44.746;19.678;2023-05-13T05:31:17;12.50;99.90
42979;DHT22;28616;44.746;19.678;2023-05-13T05:33:43;12.50;99.90
42979;DHT22;28616;44.746;19.678;2023-05-13T05:36:09;12.40;99.90
42979;DHT22;28616;44.746;19.678;2023-05-13T05:38:35;12.40;99.90
42979;DHT22;28616;44.746;19.678;2023-05-13T05:41:00;12.30;99.90
42979;DHT22;28616;44.746;19.678;2023-05-13T05:43:26;12.30;99.90
42979;DHT22;28616;44.746;19.678;2023-05-13T05:45:52;12.30;99.90
42979;DHT22;28616;44.746;19.678;2023-05-13T05:48:18;12.30;99.90
42979;DHT22;28616;44.746;19.678;2023-05-13T05:50:43;12.50;99.90
42979;DHT22;28616;44.746;19.678;2023-05-13T05:53:09;12.60;99.90
42979;DHT22;28616;44.746;19.678;2023-05-13T05:55:35;12.70;99.90
42979;DHT22;28616;44.746;19.678;2023-05-13T05:58:04;12.90;99.90
42979;DHT22;28616;44.746;19.678;2023-05-13T06:00:31;13.00;99.90
42979;DHT22;28616;44.746;19.678;2023-05-13T06:02:57;13.00;99.90
42979;DHT22;28616;44.746;19.678;2023-05-13T06:05:23;13.10;99.90
42979;DHT22;28616;44.746;19.678;2023-05-13T06:07:49;13.10;99.90
42979;DHT22;28616;44.746;19.678;2023-05-13T06:10:15;13.00;99.90
42979;DHT22;28616;44.746;19.678;2023-05-13T06:12:40;13.10;99.90
42979;DHT22;28616;44.746;19.678;2023-05-13T06:15:09;13.30;99.90
42979;DHT22;28616;44.746;19.678;2023-05-13T06:17:36;13.40;99.90
42979;DHT22;28616;44.746;19.678;2023-05-13T06:20:02;13.50;99.90
42979;DHT22;28616;44.746;19.678;2023-05-13T06:22:28;13.70;99.90
42979;DHT22;28616;44.746;19.678;2023-05-13T06:24:54;13.80;99.90
42979;DHT22;28616;44.746;19.678;2023-05-13T06:27:20;13.90;99.90
42979;DHT22;28616;44.746;19.678;2023-05-13T06:29:46;13.90;99.90
42979;DHT22;28616;44.746;19.678;2023-05-13T06:32:12;14.00;99.90
42979;DHT22;28616;44.746;19.678;2023-05-13T06:34:38;14.10;99.90
42979;DHT22;28616;44.746;19.678;2023-05-13T06:37:10;14.20;99.90
42979;DHT22;28616;44.746;19.678;2023-05-13T06:39:36;14.40;99.90
42979;DHT22;28616;44.746;19.678;2023-05-13T06:42:03;14.50;99.90
42979;DHT22;28616;44.746;19.678;2023-05-13T06:44:28;14.60;99.90
42979;DHT22;28616;44.746;19.678;2023-05-13T06:46:54;14.70;99.90
42979;DHT22;28616;44.746;19.678;2023-05-13T06:49:20;14.80;99.90
42979;DHT22;28616;44.746;19.678;2023-05-13T06:51:46;14.90;99.90
42979;DHT22;28616;44.746;19.678;2023-05-13T06:54:12;15.10;99.90
42979;DHT22;28616;44.746;19.678;2023-05-13T06:56:38;15.30;99.90
42979;DHT22;28616;44.746;19.678;2023-05-13T06:59:04;15.40;99.90
42979;DHT22;28616;44.746;19.678;2023-05-13T07:04:53;15.60;99.90
42979;DHT22;28616;44.746;19.678;2023-05-13T07:07:19;15.70;99.90
42979;DHT22;28616;44.746;19.678;2023-05-13T07:09:44;15.90;99.90
42979;DHT22;28616;44.746;19.678;2023-05-13T07:12:10;15.80;99.90
42979;DHT22;28616;44.746;19.678;2023-05-13T07:14:36;15.90;99.90
42979;DHT22;28616;44.746;19.678;2023-05-13T07:17:02;16.20;99.90
42979;DHT22;28616;44.746;19.678;2023-05-13T07:19:28;16.30;99.90
42979;DHT22;28616;44.746;19.678;2023-05-13T07:21:54;16.30;99.90
42979;DHT22;28616;44.746;19.678;2023-05-13T07:24:20;16.40;99.90
42979;DHT22;28616;44.746;19.678;2023-05-13T07:26:46;16.30;99.90
42979;DHT22;28616;44.746;19.678;2023-05-13T07:29:12;16.30;99.90
42979;DHT22;28616;44.746;19.678;2023-05-13T07:31:38;16.60;99.90
42979;DHT22;28616;44.746;19.678;2023-05-13T07:34:04;16.90;99.90
42979;DHT22;28616;44.746;19.678;2023-05-13T07:36:30;16.90;99.90
42979;DHT22;28616;44.746;19.678;2023-05-13T07:38:56;17.20;99.90
42979;DHT22;28616;44.746;19.678;2023-05-13T07:41:22;17.40;99.90
42979;DHT22;28616;44.746;19.678;2023-05-13T07:43:47;17.50;99.90
42979;DHT22;28616;44.746;19.678;2023-05-13T07:46:13;17.50;99.90
42979;DHT22;28616;44.746;19.678;2023-05-13T07:48:39;17.60;99.90
42979;DHT22;28616;44.746;19.678;2023-05-13T07:51:05;17.40;99.90
42979;DHT22;28616;44.746;19.678;2023-05-13T07:53:31;17.20;99.90
42979;DHT22;28616;44.746;19.678;2023-05-13T07:55:57;17.40;99.90
42979;DHT22;28616;44.746;19.678;2023-05-13T07:58:23;17.50;99.90
42979;DHT22;28616;44.746;19.678;2023-05-13T08:00:49;17.70;99.90
42979;DHT22;28616;44.746;19.678;2023-05-13T08:03:14;17.80;99.90
42979;DHT22;28616;44.746;19.678;2023-05-13T08:05:41;18.10;99.90
42979;DHT22;28616;44.746;19.678;2023-05-13T08:10:33;18.20;99.90
42979;DHT22;28616;44.746;19.678;2023-05-13T08:12:59;18.10;99.90
42979;DHT22;28616;44.746;19.678;2023-05-13T08:15:26;18.20;99.90
42979;DHT22;28616;44.746;19.678;2023-05-13T08:17:52;18.40;99.90
42979;DHT22;28616;44.746;19.678;2023-05-13T08:20:18;18.40;99.90
42979;DHT22;28616;44.746;19.678;2023-05-13T08:25:12;18.70;99.90
42979;DHT22;28616;44.746;19.678;2023-05-13T08:27:38;18.90;99.90
42979;DHT22;28616;44.746;19.678;2023-05-13T08:30:04;18.80;99.90
42979;DHT22;28616;44.746;19.678;2023-05-13T08:32:30;18.40;99.90
42979;DHT22;28616;44.746;19.678;2023-05-13T08:34:56;18.70;99.90
42979;DHT22;28616;44.746;19.678;2023-05-13T08:37:22;18.90;99.90
42979;DHT22;28616;44.746;19.678;2023-05-13T08:39:48;19.00;99.90
42979;DHT22;28616;44.746;19.678;2023-05-13T13:08:29;20.40;74.40
42979;DHT22;28616;44.746;19.678;2023-05-13T13:10:57;20.10;82.20
42979;DHT22;28616;44.746;19.678;2023-05-13T13:13:23;19.50;89.40
42979;DHT22;28616;44.746;19.678;2023-05-13T13:15:48;19.10;99.90
42979;DHT22;28616;44.746;19.678;2023-05-13T13:18:14;18.70;99.90
42979;DHT22;28616;44.746;19.678;2023-05-13T13:20:40;18.60;99.90
42979;DHT22;28616;44.746;19.678;2023-05-13T13:23:07;18.20;99.90
42979;DHT22;28616;44.746;19.678;2023-05-13T13:25:33;18.10;99.90
42979;DHT22;28616;44.746;19.678;2023-05-13T13:27:59;18.10;99.90
42979;DHT22;28616;44.746;19.678;2023-05-13T13:30:25;18.20;99.90
42979;DHT22;28616;44.746;19.678;2023-05-13T13:32:50;18.30;99.90
42979;DHT22;28616;44.746;19.678;2023-05-13T13:35:16;18.10;99.90
42979;DHT22;28616;44.746;19.678;2023-05-13T13:37:42;17.70;99.90
42979;DHT22;28616;44.746;19.678;2023-05-13T13:40:08;17.20;99.90
42979;DHT22;28616;44.746;19.678;2023-05-13T13:42:34;16.90;99.90
42979;DHT22;28616;44.746;19.678;2023-05-13T13:45:00;16.60;99.90
42979;DHT22;28616;44.746;19.678;2023-05-13T13:47:27;16.40;99.90
42979;DHT22;28616;44.746;19.678;2023-05-13T13:49:53;16.30;99.90
42979;DHT22;28616;44.746;19.678;2023-05-13T13:52:19;16.30;99.90
42979;DHT22;28616;44.746;19.678;2023-05-13T13:54:47;16.20;99.90
42979;DHT22;28616;44.746;19.678;2023-05-13T13:57:13;16.20;99.90
42979;DHT22;28616;44.746;19.678;2023-05-13T13:59:39;16.20;99.90
42979;DHT22;28616;44.746;19.678;2023-05-13T14:02:06;16.20;99.90
42979;DHT22;28616;44.746;19.678;2023-05-13T14:04:31;16.20;99.90
42979;DHT22;28616;44.746;19.678;2023-05-13T14:06:58;16.20;99.90
42979;DHT22;28616;44.746;19.678;2023-05-13T14:09:24;16.30;99.90
42979;DHT22;28616;44.746;19.678;2023-05-13T14:11:53;16.30;99.90
42979;DHT22;28616;44.746;19.678;2023-05-13T14:14:18;16.40;99.90
42979;DHT22;28616;44.746;19.678;2023-05-13T14:16:46;16.50;99.90
42979;DHT22;28616;44.746;19.678;2023-05-13T14:19:11;16.60;99.90
42979;DHT22;28616;44.746;19.678;2023-05-13T14:21:37;16.70;99.90
42979;DHT22;28616;44.746;19.678;2023-05-13T14:24:03;16.70;99.90
42979;DHT22;28616;44.746;19.678;2023-05-13T14:26:29;16.80;99.90
42979;DHT22;28616;44.746;19.678;2023-05-13T14:28:55;16.90;99.90
42979;DHT22;28616;44.746;19.678;2023-05-13T14:31:21;16.90;99.90
42979;DHT22;28616;44.746;19.678;2023-05-13T14:33:47;16.90;99.90
42979;DHT22;28616;44.746;19.678;2023-05-13T14:36:12;17.00;99.90
42979;DHT22;28616;44.746;19.678;2023-05-13T14:38:43;17.00;99.90
42979;DHT22;28616;44.746;19.678;2023-05-13T14:41:09;17.10;99.90
42979;DHT22;28616;44.746;19.678;2023-05-13T14:43:35;17.10;99.90
42979;DHT22;28616;44.746;19.678;2023-05-13T14:46:01;17.20;99.90
42979;DHT22;28616;44.746;19.678;2023-05-13T14:48:26;17.30;99.90
42979;DHT22;28616;44.746;19.678;2023-05-13T14:50:52;17.40;99.90
42979;DHT22;28616;44.746;19.678;2023-05-13T14:53:18;17.40;99.90
42979;DHT22;28616;44.746;19.678;2023-05-13T14:55:44;17.30;99.90
42979;DHT22;28616;44.746;19.678;2023-05-13T14:58:10;17.30;99.90
42979;DHT22;28616;44.746;19.678;2023-05-13T15:00:37;17.20;99.90
42979;DHT22;28616;44.746;19.678;2023-05-13T15:03:04;17.20;99.90
42979;DHT22;28616;44.746;19.678;2023-05-13T15:05:29;17.20;99.90
42979;DHT22;28616;44.746;19.678;2023-05-13T15:07:56;17.20;99.90
42979;DHT22;28616;44.746;19.678;2023-05-13T15:10:22;17.20;99.90
42979;DHT22;28616;44.746;19.678;2023-05-13T15:12:48;17.20;99.90
42979;DHT22;28616;44.746;19.678;2023-05-13T15:15:14;17.10;99.90
42979;DHT22;28616;44.746;19.678;2023-05-13T15:17:39;17.10;99.90
42979;DHT22;28616;44.746;19.678;2023-05-13T15:20:06;17.20;99.90
42979;DHT22;28616;44.746;19.678;2023-05-13T15:22:31;17.10;99.90
42979;DHT22;28616;44.746;19.678;2023-05-13T15:24:57;17.10;99.90
42979;DHT22;28616;44.746;19.678;2023-05-13T15:27:25;17.10;99.90
42979;DHT22;28616;44.746;19.678;2023-05-13T15:29:52;17.00;99.90
42979;DHT22;28616;44.746;19.678;2023-05-13T15:32:18;16.90;99.90
42979;DHT22;28616;44.746;19.678;2023-05-13T15:34:44;16.90;99.90
42979;DHT22;28616;44.746;19.678;2023-05-13T15:37:11;16.90;99.90
42979;DHT22;28616;44.746;19.678;2023-05-13T15:39:37;16.90;99.90
42979;DHT22;28616;44.746;19.678;2023-05-13T15:42:02;16.90;99.90
42979;DHT22;28616;44.746;19.678;2023-05-13T15:44:28;16.90;99.90
42979;DHT22;28616;44.746;19.678;2023-05-13T15:46:54;16.80;99.90
42979;DHT22;28616;44.746;19.678;2023-05-13T15:49:20;16.80;99.90
42979;DHT22;28616;44.746;19.678;2023-05-13T15:51:46;16.70;99.90
42979;DHT22;28616;44.746;19.678;2023-05-13T15:54:12;16.70;99.90
42979;DHT22;28616;44.746;19.678;2023-05-13T15:56:38;16.60;99.90
42979;DHT22;28616;44.746;19.678;2023-05-13T15:59:04;16.60;99.90
42979;DHT22;28616;44.746;19.678;2023-05-13T16:01:29;16.60;99.90
42979;DHT22;28616;44.746;19.678;2023-05-13T16:03:55;16.60;99.90
42979;DHT22;28616;44.746;19.678;2023-05-13T16:06:21;16.60;99.90
42979;DHT22;28616;44.746;19.678;2023-05-13T16:08:47;16.60;99.90
42979;DHT22;28616;44.746;19.678;2023-05-13T16:11:13;16.60;99.90
42979;DHT22;28616;44.746;19.678;2023-05-13T16:13:39;16.60;99.90
42979;DHT22;28616;44.746;19.678;2023-05-13T16:16:05;16.60;99.90
42979;DHT22;28616;44.746;19.678;2023-05-13T16:18:31;16.70;99.90
42979;DHT22;28616;44.746;19.678;2023-05-13T16:20:57;16.70;99.90
42979;DHT22;28616;44.746;19.678;2023-05-13T16:23:23;16.60;99.90
42979;DHT22;28616;44.746;19.678;2023-05-13T16:25:48;16.70;99.90
42979;DHT22;28616;44.746;19.678;2023-05-13T16:28:14;16.70;99.90
42979;DHT22;28616;44.746;19.678;2023-05-13T16:30:40;16.70;99.90
42979;DHT22;28616;44.746;19.678;2023-05-13T16:33:07;16.70;99.90
42979;DHT22;28616;44.746;19.678;2023-05-13T16:35:34;16.70;99.90
42979;DHT22;28616;44.746;19.678;2023-05-13T16:38:01;16.70;99.90
42979;DHT22;28616;44.746;19.678;2023-05-13T16:40:27;16.70;99.90
42979;DHT22;28616;44.746;19.678;2023-05-13T16:42:52;16.70;99.90
42979;DHT22;28616;44.746;19.678;2023-05-13T16:45:18;16.70;99.90
42979;DHT22;28616;44.746;19.678;2023-05-13T16:47:44;16.70;99.90
42979;DHT22;28616;44.746;19.678;2023-05-13T16:50:10;16.70;99.90
42979;DHT22;28616;44.746;19.678;2023-05-13T16:52:35;16.70;99.90
42979;DHT22;28616;44.746;19.678;2023-05-13T16:55:01;16.70;99.90
42979;DHT22;28616;44.746;19.678;2023-05-13T16:57:27;16.70;99.90
42979;DHT22;28616;44.746;19.678;2023-05-13T16:59:53;16.70;99.90
42979;DHT22;28616;44.746;19.678;2023-05-13T17:02:19;16.70;99.90
42979;DHT22;28616;44.746;19.678;2023-05-13T17:04:44;16.70;99.90
42979;DHT22;28616;44.746;19.678;2023-05-13T17:07:10;16.70;99.90
42979;DHT22;28616;44.746;19.678;2023-05-13T17:09:36;16.70;99.90
42979;DHT22;28616;44.746;19.678;2023-05-13T17:12:02;16.70;99.90
42979;DHT22;28616;44.746;19.678;2023-05-13T17:14:27;16.70;99.90
42979;DHT22;28616;44.746;19.678;2023-05-13T17:16:53;16.70;99.90
42979;DHT22;28616;44.746;19.678;2023-05-13T17:19:19;16.70;99.90
42979;DHT22;28616;44.746;19.678;2023-05-13T17:21:44;16.70;99.90
42979;DHT22;28616;44.746;19.678;2023-05-13T17:24:10;16.70;99.90
42979;DHT22;28616;44.746;19.678;2023-05-13T17:26:36;16.60;99.90
42979;DHT22;28616;44.746;19.678;2023-05-13T17:29:02;16.60;99.90
42979;DHT22;28616;44.746;19.678;2023-05-13T17:31:28;16.50;99.90
42979;DHT22;28616;44.746;19.678;2023-05-13T17:33:53;16.50;99.90
42979;DHT22;28616;44.746;19.678;2023-05-13T17:36:19;16.50;99.90
42979;DHT22;28616;44.746;19.678;2023-05-13T17:38:47;16.40;99.90
42979;DHT22;28616;44.746;19.678;2023-05-13T17:41:14;16.40;99.90
42979;DHT22;28616;44.746;19.678;2023-05-13T17:43:39;16.40;99.90
42979;DHT22;28616;44.746;19.678;2023-05-13T17:46:05;16.40;99.90
42979;DHT22;28616;44.746;19.678;2023-05-13T17:48:31;16.40;99.90
42979;DHT22;28616;44.746;19.678;2023-05-13T17:50:57;16.40;99.90
42979;DHT22;28616;44.746;19.678;2023-05-13T17:53:23;16.30;99.90
42979;DHT22;28616;44.746;19.678;2023-05-13T17:55:49;16.30;99.90
42979;DHT22;28616;44.746;19.678;2023-05-13T17:58:15;16.20;99.90
42979;DHT22;28616;44.746;19.678;2023-05-13T18:00:41;16.20;99.90
42979;DHT22;28616;44.746;19.678;2023-05-13T18:03:07;16.20;99.90
42979;DHT22;28616;44.746;19.678;2023-05-13T18:05:33;16.20;99.90
42979;DHT22;28616;44.746;19.678;2023-05-13T18:07:59;16.10;99.90
42979;DHT22;28616;44.746;19.678;2023-05-13T18:10:25;16.10;99.90
42979;DHT22;28616;44.746;19.678;2023-05-13T18:12:52;16.10;99.90
42979;DHT22;28616;44.746;19.678;2023-05-13T18:15:18;16.10;99.90
42979;DHT22;28616;44.746;19.678;2023-05-13T18:17:44;16.00;99.90
42979;DHT22;28616;44.746;19.678;2023-05-13T18:20:10;16.00;99.90
42979;DHT22;28616;44.746;19.678;2023-05-13T18:22:36;15.90;99.90
42979;DHT22;28616;44.746;19.678;2023-05-13T18:25:02;15.90;99.90
42979;DHT22;28616;44.746;19.678;2023-05-13T18:27:28;16.00;99.90
42979;DHT22;28616;44.746;19.678;2023-05-13T18:29:54;15.90;99.90
42979;DHT22;28616;44.746;19.678;2023-05-13T18:32:19;15.90;99.90
42979;DHT22;28616;44.746;19.678;2023-05-13T18:34:45;15.90;99.90
42979;DHT22;28616;44.746;19.678;2023-05-13T18:37:11;15.90;99.90
42979;DHT22;28616;44.746;19.678;2023-05-13T18:39:36;15.90;99.90
42979;DHT22;28616;44.746;19.678;2023-05-13T18:42:02;15.90;99.90
42979;DHT22;28616;44.746;19.678;2023-05-13T18:44:30;15.90;99.90
42979;DHT22;28616;44.746;19.678;2023-05-13T18:46:55;15.80;99.90
42979;DHT22;28616;44.746;19.678;2023-05-13T18:49:23;15.80;99.90
42979;DHT22;28616;44.746;19.678;2023-05-13T18:51:49;15.80;99.90
42979;DHT22;28616;44.746;19.678;2023-05-13T18:54:14;15.80;99.90
42979;DHT22;28616;44.746;19.678;2023-05-13T18:56:41;15.80;99.90
42979;DHT22;28616;44.746;19.678;2023-05-13T18:59:06;15.90;99.90
42979;DHT22;28616;44.746;19.678;2023-05-13T19:01:32;15.90;99.90
42979;DHT22;28616;44.746;19.678;2023-05-13T19:03:59;15.90;99.90
42979;DHT22;28616;44.746;19.678;2023-05-13T19:06:26;15.90;99.90
42979;DHT22;28616;44.746;19.678;2023-05-13T19:08:52;15.80;99.90
42979;DHT22;28616;44.746;19.678;2023-05-13T19:11:18;15.80;99.90
42979;DHT22;28616;44.746;19.678;2023-05-13T19:13:44;15.80;99.90
42979;DHT22;28616;44.746;19.678;2023-05-13T19:16:09;15.80;99.90
42979;DHT22;28616;44.746;19.678;2023-05-13T19:18:35;15.80;99.90
42979;DHT22;28616;44.746;19.678;2023-05-13T19:21:01;15.80;99.90
42979;DHT22;28616;44.746;19.678;2023-05-13T19:23:27;15.70;99.90
42979;DHT22;28616;44.746;19.678;2023-05-13T19:25:52;15.70;99.90
42979;DHT22;28616;44.746;19.678;2023-05-13T19:28:18;15.80;99.90
42979;DHT22;28616;44.746;19.678;2023-05-13T19:30:45;15.80;99.90
42979;DHT22;28616;44.746;19.678;2023-05-13T19:33:10;15.70;99.90
42979;DHT22;28616;44.746;19.678;2023-05-13T19:35:36;15.70;99.90
42979;DHT22;28616;44.746;19.678;2023-05-13T19:38:02;15.70;99.90
42979;DHT22;28616;44.746;19.678;2023-05-13T19:40:28;15.70;99.90
42979;DHT22;28616;44.746;19.678;2023-05-13T19:42:54;15.70;99.90
42979;DHT22;28616;44.746;19.678;2023-05-13T19:45:22;15.70;99.90